Time;durP1;ratioP1;P1;durP2;ratioP2;P2;SDS_P1;SDS_P2;PMS_P1;PMS_P2;Temp;Humidity;BMP_temperature;BMP_pressure;BME280_temperature;BME280_humidity;BME280_pressure;Samples;Min_cycle;Max_cycle;Signal;HPM_P1;HPM_P2
2022/11/03 00:02:19;;;;;;;13.85;2.45;;;;;;;12.86;95.08;101330.63;5027595;28;20037;-58
2022/11/03 00:04:44;;;;;;;12.93;2.53;;;;;;;12.89;95.46;101312.00;5027630;28;20526;-59
2022/11/03 00:07:10;;;;;;;21.20;3.08;;;;;;;12.91;95.36;101314.59;5027487;28;20021;-58
2022/11/03 00:09:35;;;;;;;15.48;2.67;;;;;;;12.81;95.77;101308.78;5027669;28;20424;-56
2022/11/03 00:12:00;;;;;;;15.18;2.22;;;;;;;12.75;96.50;101303.72;5027148;28;20034;-57
2022/11/03 00:14:26;;;;;;;12.45;2.97;;;;;;;12.68;96.98;101302.22;5026555;28;20396;-57
2022/11/03 00:16:52;;;;;;;13.65;2.63;;;;;;;12.72;96.90;101303.81;5026437;28;20120;-60
2022/11/03 00:19:17;;;;;;;18.90;2.90;;;;;;;12.68;97.29;101299.56;5026816;28;20034;-59
2022/11/03 00:21:42;;;;;;;10.90;2.47;;;;;;;12.69;97.78;101298.63;5027441;28;20033;-58
2022/11/03 00:24:08;;;;;;;14.35;2.63;;;;;;;12.66;97.89;101293.47;5026667;28;20025;-59
2022/11/03 00:26:34;;;;;;;15.13;2.78;;;;;;;12.68;97.60;101297.81;5027296;28;20381;-60
2022/11/03 00:29:05;;;;;;;13.32;2.78;;;;;;;12.72;97.55;101287.97;5026861;28;20032;-59
2022/11/03 00:31:33;;;;;;;31.10;3.30;;;;;;;12.68;97.90;101287.22;5027609;28;20027;-57
2022/11/03 00:33:59;;;;;;;12.18;3.30;;;;;;;12.72;97.84;101288.84;5027598;28;20034;-58
2022/11/03 00:36:26;;;;;;;17.48;2.50;;;;;;;12.73;98.13;101287.91;5027529;28;20472;-56
2022/11/03 00:38:52;;;;;;;18.45;2.35;;;;;;;12.70;98.56;101285.38;5026237;28;20474;-58
2022/11/03 00:41:21;;;;;;;13.82;2.70;;;;;;;12.64;98.85;101281.16;5025990;28;20037;-59
2022/11/03 00:43:48;;;;;;;17.60;3.05;;;;;;;12.76;98.21;101274.56;5026110;28;20064;-60
2022/11/03 00:46:13;;;;;;;17.52;2.67;;;;;;;12.79;98.11;101276.25;5026581;28;20025;-58
2022/11/03 00:48:39;;;;;;;17.55;2.80;;;;;;;12.76;98.67;101276.34;5026211;28;20052;-58
2022/11/03 00:51:13;;;;;;;12.70;2.67;;;;;;;12.80;98.28;101270.06;5025170;28;20109;-57
2022/11/03 00:53:45;;;;;;;14.70;2.42;;;;;;;12.75;99.05;101269.34;5027321;28;20076;-57
2022/11/03 00:56:14;;;;;;;14.13;2.80;;;;;;;12.80;98.60;101272.69;5028098;28;20040;-58
2022/11/03 00:58:40;;;;;;;;;;;;;;;12.80;98.87;101271.81;5030369;28;20017;-58
2022/11/03 01:01:17;;;;;;;13.27;2.83;;;;;;;12.69;99.17;101273.06;5028942;28;19954;-59
2022/11/03 01:09:14;;;;;;;15.52;2.80;;;;;;;12.52;100.00;101257.81;5030354;28;20133;-59
2022/11/03 01:11:45;;;;;;;10.63;2.67;;;;;;;12.41;100.00;101255.56;5029685;28;20128;-56
2022/11/03 01:14:13;;;;;;;14.48;2.83;;;;;;;12.41;100.00;101254.69;5028795;28;20072;-58
2022/11/03 01:16:39;;;;;;;16.23;3.17;;;;;;;12.37;100.00;101253.91;5029712;28;20032;-59
2022/11/03 01:19:06;;;;;;;13.27;2.83;;;;;;;12.37;100.00;101253.91;5028876;28;20038;-58
2022/11/03 01:21:31;;;;;;;13.45;2.70;;;;;;;12.36;100.00;101255.72;5030567;28;20108;-59
2022/11/03 01:24:00;;;;;;;12.77;2.53;;;;;;;12.32;100.00;101251.47;5029857;28;20068;-58
2022/11/03 01:26:25;;;;;;;17.35;2.88;;;;;;;12.29;100.00;101245.41;5029027;28;20563;-59
2022/11/03 01:28:51;;;;;;;16.13;3.47;;;;;;;12.28;100.00;101252.47;5029786;28;20116;-56
2022/11/03 01:31:19;;;;;;;14.07;2.40;;;;;;;12.18;100.00;101240.47;5030589;28;20116;-57
2022/11/03 01:33:45;;;;;;;15.40;2.67;;;;;;;12.09;100.00;101236.38;5030499;28;20029;-58
2022/11/03 01:36:11;;;;;;;15.57;3.03;;;;;;;11.95;100.00;101237.66;5030711;28;20021;-58
2022/11/03 01:38:37;;;;;;;17.92;3.53;;;;;;;11.95;100.00;101234.19;5031051;28;20029;-59
2022/11/03 01:41:04;;;;;;;14.57;2.78;;;;;;;11.96;100.00;101230.63;5028835;28;20029;-61
2022/11/03 01:43:32;;;;;;;16.38;3.00;;;;;;;11.93;100.00;101210.47;5031394;28;20075;-58
2022/11/03 01:46:07;;;;;;;18.08;3.13;;;;;;;11.93;100.00;101215.75;5029879;28;20109;-59
2022/11/03 01:48:33;;;;;;;15.73;3.10;;;;;;;11.95;100.00;101210.41;5029729;28;20061;-58
2022/11/03 01:50:59;;;;;;;15.38;2.53;;;;;;;11.96;100.00;101210.38;5030517;28;20025;-60
2022/11/03 01:53:25;;;;;;;15.07;3.03;;;;;;;12.01;100.00;101203.13;5028745;28;20022;-59
2022/11/03 01:55:51;;;;;;;11.25;2.67;;;;;;;11.95;100.00;101205.13;5029217;28;20033;-58
2022/11/03 01:58:19;;;;;;;13.38;2.55;;;;;;;11.93;100.00;101207.84;5027547;28;20022;-58
2022/11/03 02:00:46;;;;;;;13.83;2.73;;;;;;;11.90;100.00;101205.28;5028234;28;20035;-57
2022/11/03 02:03:13;;;;;;;16.80;3.13;;;;;;;11.99;100.00;101209.41;5108382;22;20299;-57
2022/11/03 02:05:39;;;;;;;11.55;2.75;;;;;;;12.00;100.00;101200.56;5049555;28;20052;-59
2022/11/03 02:08:12;;;;;;;16.02;2.63;;;;;;;12.02;100.00;101198.72;5049100;28;20120;-58
2022/11/03 02:10:38;;;;;;;11.75;2.05;;;;;;;12.10;100.00;101191.44;5031908;28;20025;-57
2022/11/03 02:13:12;;;;;;;16.65;3.13;;;;;;;12.17;100.00;101183.28;5049306;28;20763;-58
2022/11/03 02:15:38;;;;;;;14.55;2.80;;;;;;;12.17;100.00;101180.66;5048432;28;20027;-57
2022/11/03 02:18:05;;;;;;;16.90;2.60;;;;;;;12.13;100.00;101175.47;5031288;28;20025;-59
2022/11/03 02:20:31;;;;;;;18.13;3.42;;;;;;;12.24;100.00;101168.94;5048400;28;20430;-58
2022/11/03 02:23:12;;;;;;;17.63;3.08;;;;;;;12.23;100.00;101173.38;5031271;28;20111;-57
2022/11/03 02:25:42;;;;;;;13.70;2.78;;;;;;;12.27;100.00;101174.13;5014215;28;20025;-57
2022/11/03 02:28:08;;;;;;;15.68;2.65;;;;;;;12.33;100.00;101162.47;5048456;28;20518;-58
2022/11/03 02:30:55;;;;;;;18.73;2.97;;;;;;;12.34;100.00;101156.28;5029252;28;20029;-60
2022/11/03 02:33:29;;;;;;;16.75;2.90;;;;;;;12.33;100.00;101144.84;5048795;28;20394;-61
2022/11/03 02:36:21;;;;;;;21.60;3.40;;;;;;;12.32;100.00;101132.56;5030179;28;20025;-56
2022/11/03 02:38:52;;;;;;;18.67;2.92;;;;;;;12.33;100.00;101128.13;5029780;28;20543;-54
2022/11/03 02:41:18;;;;;;;8.60;2.13;;;;;;;12.42;100.00;101132.19;5030344;28;20415;-57
2022/11/03 02:43:44;;;;;;;11.98;2.30;;;;;;;12.56;100.00;101123.75;5028039;28;20467;-56
2022/11/03 02:46:11;;;;;;;13.57;2.92;;;;;;;12.58;100.00;101129.88;5029088;28;20029;-55
2022/11/03 02:48:36;;;;;;;13.93;2.30;;;;;;;12.60;100.00;101117.44;5030412;28;20417;-57
2022/11/03 02:51:03;;;;;;;19.63;2.90;;;;;;;12.68;100.00;101111.84;5048449;28;20037;-58
2022/11/03 02:53:29;;;;;;;14.30;3.10;;;;;;;12.69;100.00;101103.00;5047207;28;20025;-56
2022/11/03 02:56:06;;;;;;;16.33;2.85;;;;;;;12.66;100.00;101095.19;5048390;28;20036;-57
2022/11/03 02:58:50;;;;;;;15.18;2.90;;;;;;;12.71;100.00;101090.59;5029526;28;20025;-57
2022/11/03 03:01:23;;;;;;;17.90;3.47;;;;;;;12.76;100.00;101094.78;5047250;28;20037;-59
2022/11/03 03:04:08;;;;;;;20.58;2.95;;;;;;;12.82;100.00;101091.03;5030301;28;20041;-56
2022/11/03 03:06:38;;;;;;;16.02;2.95;;;;;;;12.63;100.00;101098.81;5047060;28;20071;-58
2022/11/03 03:09:07;;;;;;;15.27;2.78;;;;;;;12.68;100.00;101086.28;5030285;28;20033;-59
2022/11/03 03:11:36;;;;;;;16.27;2.90;;;;;;;12.69;100.00;101079.19;5030252;28;20021;-57
2022/11/03 03:14:13;;;;;;;14.30;2.80;;;;;;;12.71;100.00;101080.88;5013736;28;20082;-58
2022/11/03 03:16:51;;;;;;;21.85;3.50;;;;;;;12.66;100.00;101074.03;5048421;28;20269;-58
2022/11/03 03:19:34;;;;;;;16.10;2.63;;;;;;;12.61;100.00;101069.78;5046883;28;20471;-57
2022/11/03 03:22:02;;;;;;;16.92;2.78;;;;;;;12.59;100.00;101069.00;5048349;28;20088;-58
2022/11/03 03:24:37;;;;;;;16.40;3.05;;;;;;;12.42;100.00;101068.78;5013715;28;20029;-57
2022/11/03 03:27:06;;;;;;;13.48;2.50;;;;;;;12.42;100.00;101063.50;5029308;28;20444;-59
2022/11/03 03:29:36;;;;;;;12.38;2.85;;;;;;;12.40;100.00;101063.53;5029261;28;20059;-58
2022/11/03 03:32:05;;;;;;;12.60;2.70;;;;;;;12.37;100.00;101067.16;5029390;28;20438;-60
2022/11/03 03:34:33;;;;;;;8.82;2.35;;;;;;;12.38;100.00;101060.13;5029691;28;20107;-58
2022/11/03 03:36:58;;;;;;;16.15;2.72;;;;;;;12.37;100.00;101058.38;5047392;28;20059;-57
2022/11/03 03:39:26;;;;;;;13.85;2.63;;;;;;;12.32;100.00;101060.34;5029294;28;20684;-58
2022/11/03 03:41:52;;;;;;;12.95;2.25;;;;;;;12.41;100.00;101064.41;5029646;28;20025;-57
2022/11/03 03:44:18;;;;;;;11.55;2.90;;;;;;;12.32;100.00;101058.56;5028998;28;20093;-58
2022/11/03 03:46:47;;;;;;;13.27;2.85;;;;;;;12.33;100.00;101049.72;5046453;28;20104;-56
2022/11/03 03:49:13;;;;;;;11.07;2.45;;;;;;;12.31;100.00;101051.53;5029372;28;20108;-56
2022/11/03 03:51:39;;;;;;;12.02;2.35;;;;;;;12.23;100.00;101050.97;5046525;28;20155;-58
2022/11/03 03:54:05;;;;;;;21.52;3.30;;;;;;;12.21;100.00;101044.88;5017017;28;20041;-59
2022/11/03 03:56:46;;;;;;;13.73;2.80;;;;;;;12.21;100.00;101050.16;5027667;28;20471;-56
2022/11/03 03:59:12;;;;;;;15.00;2.90;;;;;;;12.16;100.00;101036.28;5025468;28;20033;-57
2022/11/03 04:01:37;;;;;;;14.40;2.58;;;;;;;12.20;100.00;101037.88;5027329;28;20029;-58
2022/11/03 04:04:03;;;;;;;13.95;2.70;;;;;;;12.25;100.00;101038.56;5027072;28;20135;-57
2022/11/03 04:06:28;;;;;;;20.55;3.40;;;;;;;12.20;100.00;101032.59;5027610;28;20029;-56
2022/11/03 04:08:53;;;;;;;16.55;2.97;;;;;;;12.22;100.00;101030.78;5026910;28;20114;-58
2022/11/03 04:22:17;;;;;;;18.20;2.85;;;;;;;12.12;100.00;101025.84;5046525;28;20044;-56
2022/11/03 04:24:50;;;;;;;12.23;2.67;;;;;;;12.12;100.00;101020.56;5047418;28;20027;-58
2022/11/03 04:27:26;;;;;;;19.10;3.20;;;;;;;12.15;100.00;101018.69;5046866;28;20039;-57
2022/11/03 04:29:56;;;;;;;13.13;2.78;;;;;;;12.15;100.00;101022.22;5046275;28;20467;-58
2022/11/03 04:32:21;;;;;;;;;;;;;;;12.21;100.00;101016.69;5033816;28;20107;-56
2022/11/03 04:34:47;;;;;;;17.63;3.22;;;;;;;12.12;100.00;101004.69;5047968;28;20406;-57
2022/11/03 04:37:13;;;;;;;13.27;2.65;;;;;;;12.13;100.00;100998.50;5050058;28;20053;-59
2022/11/03 04:39:39;;;;;;;9.85;2.92;;;;;;;12.04;100.00;101001.44;5033219;28;20444;-57
2022/11/03 04:42:21;;;;;;;18.83;3.75;;;;;;;12.00;100.00;101000.72;5030871;28;20068;-59
2022/11/03 04:44:47;;;;;;;13.00;2.55;;;;;;;12.00;100.00;100991.91;5029984;28;20036;-59
2022/11/03 04:47:14;;;;;;;16.17;3.30;;;;;;;12.02;100.00;100987.44;5030386;28;20068;-58
2022/11/03 04:49:39;;;;;;;17.92;3.60;;;;;;;11.97;100.00;100982.34;5030808;28;20079;-58
2022/11/03 04:52:13;;;;;;;14.30;2.80;;;;;;;11.95;100.00;100985.97;5037412;28;20025;-56
2022/11/03 04:54:38;;;;;;;20.17;2.72;;;;;;;11.90;100.00;100988.78;5050317;28;20090;-56
2022/11/03 04:57:09;;;;;;;13.00;2.70;;;;;;;11.87;100.00;100983.59;5049675;28;20029;-59
2022/11/03 04:59:34;;;;;;;15.63;2.67;;;;;;;11.83;100.00;100971.44;5017351;28;20030;-59
2022/11/03 05:02:00;;;;;;;17.63;2.97;;;;;;;11.92;100.00;100970.22;5031315;28;20033;-59
2022/11/03 05:04:25;;;;;;;18.88;3.05;;;;;;;11.88;100.00;100969.47;5030430;28;20119;-59
2022/11/03 05:06:51;;;;;;;17.25;2.83;;;;;;;11.96;100.00;100964.78;5032337;28;20662;-59
2022/11/03 05:09:22;;;;;;;9.95;2.65;;;;;;;11.99;100.00;100958.50;5049551;28;20060;-58
2022/11/03 05:11:47;;;;;;;12.73;2.55;;;;;;;12.04;100.00;100953.06;5032546;28;20025;-59
2022/11/03 05:14:15;;;;;;;7.68;2.28;;;;;;;11.99;100.00;100954.09;5048562;28;20033;-58
2022/11/03 05:16:40;;;;;;;11.25;2.85;;;;;;;12.03;100.00;100941.63;5050109;28;20112;-57
2022/11/03 05:19:21;;;;;;;13.43;2.65;;;;;;;12.15;100.00;100942.97;5050631;28;20059;-58
2022/11/03 05:21:48;;;;;;;15.18;2.80;;;;;;;12.20;100.00;100938.38;5050015;28;20051;-59
2022/11/03 05:24:14;;;;;;;13.88;2.85;;;;;;;12.17;100.00;100940.25;5032610;28;20512;-58
2022/11/03 05:26:40;;;;;;;12.98;2.60;;;;;;;12.20;100.00;100932.22;5050281;28;20032;-58
2022/11/03 05:29:18;;;;;;;12.60;2.72;;;;;;;12.22;100.00;100925.09;5048711;28;20032;-58
2022/11/03 05:31:46;;;;;;;19.08;3.30;;;;;;;12.25;100.00;100917.03;5031909;28;20111;-58
2022/11/03 05:34:26;;;;;;;13.95;3.10;;;;;;;12.27;100.00;100923.13;5049686;28;20033;-57
2022/11/03 05:36:51;;;;;;;15.68;2.75;;;;;;;12.23;100.00;100910.97;5032017;28;20023;-58
2022/11/03 05:39:29;;;;;;;10.38;2.47;;;;;;;12.18;100.00;100897.06;5049680;28;20107;-58
2022/11/03 05:41:56;;;;;;;15.52;2.67;;;;;;;12.21;100.00;100908.38;5047883;28;20051;-56
2022/11/03 05:44:36;;;;;;;14.57;3.20;;;;;;;12.18;100.00;100905.00;5048642;28;20029;-56
2022/11/03 05:47:12;;;;;;;13.98;2.92;;;;;;;12.24;100.00;100904.75;5031748;28;20035;-59
2022/11/03 05:49:37;;;;;;;10.57;2.67;;;;;;;12.35;100.00;100907.84;5030879;28;20631;-59
2022/11/03 05:52:02;;;;;;;9.75;2.53;;;;;;;12.34;100.00;100898.19;5049711;28;20017;-58
2022/11/03 05:54:31;;;;;;;12.45;2.58;;;;;;;12.36;100.00;100899.00;5048863;28;20029;-58
2022/11/03 05:56:57;;;;;;;11.32;3.40;;;;;;;12.34;100.00;100903.47;5030077;28;20036;-56
2022/11/03 05:59:25;;;;;;;11.18;2.67;;;;;;;12.31;100.00;100893.00;5047459;28;20031;-57
2022/11/03 06:01:52;;;;;;;10.45;2.67;;;;;;;12.35;100.00;100899.03;5047521;28;20053;-57
2022/11/03 06:04:20;;;;;;;16.13;2.80;;;;;;;12.35;100.00;100893.75;5048694;28;20126;-57
2022/11/03 06:06:53;;;;;;;12.57;2.42;;;;;;;12.40;100.00;100901.50;5048246;28;20470;-58
2022/11/03 06:09:24;;;;;;;7.50;2.30;;;;;;;12.36;100.00;100887.53;5048914;28;20049;-58
2022/11/03 06:11:54;;;;;;;17.55;2.97;;;;;;;12.32;100.00;100870.97;5048833;28;20036;-59
2022/11/03 06:14:21;;;;;;;15.65;3.00;;;;;;;12.34;100.00;100884.13;5030540;28;20544;-58
2022/11/03 06:16:49;;;;;;;8.05;2.45;;;;;;;12.44;100.00;100869.63;5049257;28;20025;-60
2022/11/03 06:19:20;;;;;;;14.15;2.70;;;;;;;12.38;100.00;100877.78;5048865;28;20103;-57
2022/11/03 06:21:48;;;;;;;9.15;2.70;;;;;;;12.39;100.00;100874.22;5048046;28;20112;-59
2022/11/03 06:24:14;;;;;;;14.98;2.85;;;;;;;12.43;100.00;100875.81;5023997;28;20021;-58
2022/11/03 06:26:41;;;;;;;14.05;3.38;;;;;;;12.48;100.00;100860.63;5038178;28;20022;-58
2022/11/03 06:29:12;;;;;;;16.58;3.17;;;;;;;12.55;100.00;100868.31;5023694;28;20036;-58
2022/11/03 06:31:37;;;;;;;15.38;2.97;;;;;;;12.55;100.00;100858.56;5011254;28;20379;-58
2022/11/03 06:34:31;;;;;;;8.88;2.80;;;;;;;12.44;100.00;100852.88;5028997;28;20029;-59
2022/11/03 06:36:58;;;;;;;18.92;2.47;;;;;;;12.42;100.00;100852.09;5027708;28;20052;-58
2022/11/03 06:39:23;;;;;;;8.30;2.42;;;;;;;12.56;100.00;100855.03;5028793;28;20491;-58
2022/11/03 06:41:50;;;;;;;12.07;2.47;;;;;;;12.52;100.00;100850.78;5035511;28;20033;-58
2022/11/03 06:44:24;;;;;;;10.45;2.97;;;;;;;12.59;100.00;100851.38;5035907;28;20033;-58
2022/11/03 06:46:50;;;;;;;10.80;2.53;;;;;;;12.70;100.00;100854.41;5020985;28;20036;-59
2022/11/03 06:49:32;;;;;;;10.25;2.28;;;;;;;12.58;100.00;100847.88;5017276;28;20391;-57
2022/11/03 06:52:02;;;;;;;9.88;2.67;;;;;;;12.64;100.00;100852.91;5037413;28;20025;-59
2022/11/03 06:54:27;;;;;;;10.90;2.40;;;;;;;12.66;100.00;100849.31;5020328;28;20522;-57
2022/11/03 06:56:53;;;;;;;8.48;2.60;;;;;;;12.64;100.00;100852.91;5047355;28;20045;-58
2022/11/03 06:59:18;;;;;;;22.90;3.20;;;;;;;12.66;100.00;100839.63;5046871;28;20387;-57
2022/11/03 07:01:45;;;;;;;7.20;2.33;;;;;;;12.79;100.00;100841.75;5047571;28;20021;-58
2022/11/03 07:04:20;;;;;;;14.70;2.85;;;;;;;12.75;100.00;100838.38;5047350;28;20048;-58
2022/11/03 07:06:47;;;;;;;11.63;3.15;;;;;;;12.79;100.00;100845.22;5047278;28;20029;-60
2022/11/03 07:09:15;;;;;;;14.43;3.15;;;;;;;12.79;100.00;100834.66;5046937;28;20057;-57
2022/11/03 07:11:48;;;;;;;13.32;2.50;;;;;;;12.75;100.00;100833.09;5047401;28;20025;-56
2022/11/03 07:14:17;;;;;;;15.57;2.92;;;;;;;12.77;100.00;100831.25;5028750;28;20013;-58
2022/11/03 07:16:45;;;;;;;10.53;2.80;;;;;;;12.88;100.00;100828.09;5028888;28;20082;-58
2022/11/03 07:19:28;;;;;;;14.55;2.55;;;;;;;12.86;100.00;100829.97;5047899;28;20291;-57
2022/11/03 07:21:58;;;;;;;11.38;2.85;;;;;;;12.79;100.00;100824.09;5019429;28;20403;-58
2022/11/03 07:24:26;;;;;;;9.23;2.78;;;;;;;12.92;100.00;100813.84;5037366;28;20102;-59
2022/11/03 07:27:25;;;;;;;19.65;3.22;;;;;;;12.93;100.00;100823.50;5035823;28;20070;-58
2022/11/03 07:29:51;;;;;;;;;;;;;;;12.97;100.00;100817.13;4994721;28;20034;-55
2022/11/03 07:32:25;;;;;;;7.68;2.60;;;;;;;12.99;100.00;100820.56;5038001;28;19912;-59
2022/11/03 07:34:52;;;;;;;14.68;2.13;;;;;;;13.07;100.00;100822.03;5014500;28;20044;-58
2022/11/03 07:37:23;;;;;;;9.93;2.47;;;;;;;13.13;100.00;100827.88;5035827;28;20403;-57
2022/11/03 07:39:49;;;;;;;11.85;2.58;;;;;;;13.07;100.00;100820.25;5018048;28;20450;-58
2022/11/03 07:42:20;;;;;;;10.85;2.33;;;;;;;13.13;100.00;100822.59;5044431;28;20607;-59
2022/11/03 07:44:47;;;;;;;15.02;2.67;;;;;;;13.08;100.00;100819.31;5028301;28;20040;-57
2022/11/03 07:47:15;;;;;;;12.15;3.15;;;;;;;13.03;100.00;100826.56;5046826;28;20017;-57
2022/11/03 07:49:41;;;;;;;9.20;2.63;;;;;;;13.10;100.00;100822.72;5047176;28;20029;-57
2022/11/03 07:52:12;;;;;;;14.35;3.33;;;;;;;13.17;100.00;100823.31;5008958;28;20261;-56
2022/11/03 07:54:38;;;;;;;16.00;2.67;;;;;;;13.23;100.00;100819.53;5023635;28;20375;-58
2022/11/03 07:57:10;;;;;;;10.68;3.17;;;;;;;13.24;100.00;100808.88;5046632;28;20036;-57
2022/11/03 07:59:44;;;;;;;9.10;2.53;;;;;;;13.35;100.00;100813.69;5027949;28;20032;-58
2022/11/03 08:02:24;;;;;;;9.25;2.53;;;;;;;13.36;100.00;100803.94;5028398;28;20052;-57
2022/11/03 08:04:50;;;;;;;7.32;2.30;;;;;;;13.33;100.00;100804.94;5046104;28;20051;-58
2022/11/03 08:07:15;;;;;;;8.07;2.70;;;;;;;13.34;100.00;100801.38;5028168;28;20550;-57
2022/11/03 08:09:41;;;;;;;12.30;2.85;;;;;;;13.36;100.00;100796.88;5046303;28;20082;-57
2022/11/03 08:12:06;;;;;;;16.88;2.78;;;;;;;13.31;100.00;100790.94;5046229;28;20031;-58
2022/11/03 08:14:32;;;;;;;12.20;2.58;;;;;;;13.50;100.00;100784.81;5044710;28;20029;-58
2022/11/03 08:16:58;;;;;;;9.23;2.40;;;;;;;13.55;100.00;100774.88;5046148;28;20043;-57
2022/11/03 08:19:23;;;;;;;11.88;2.67;;;;;;;13.47;100.00;100769.03;5021544;28;20124;-57
2022/11/03 08:21:48;;;;;;;13.63;3.00;;;;;;;13.44;100.00;100761.25;5018775;28;20189;-59
2022/11/03 08:24:14;;;;;;;9.13;2.38;;;;;;;13.48;100.00;100762.81;5034596;28;20025;-57
2022/11/03 08:26:39;;;;;;;10.50;3.47;;;;;;;13.63;100.00;100753.31;5040720;28;20443;-57
2022/11/03 08:29:04;;;;;;;12.63;2.65;;;;;;;13.45;100.00;100760.34;5034028;28;20048;-59
2022/11/03 08:31:30;;;;;;;11.93;2.88;;;;;;;13.43;100.00;100755.13;5027499;28;20041;-55
2022/11/03 08:33:55;;;;;;;15.88;3.05;;;;;;;13.52;100.00;100748.56;5028662;28;20029;-58
2022/11/03 08:36:20;;;;;;;13.18;3.00;;;;;;;13.62;100.00;100744.53;5034647;28;20056;-57
2022/11/03 08:38:46;;;;;;;15.20;3.00;;;;;;;13.56;100.00;100734.22;5037162;28;20021;-57
2022/11/03 08:41:11;;;;;;;16.35;3.40;;;;;;;13.83;100.00;100735.59;5036317;28;20021;-58
2022/11/03 08:43:36;;;;;;;18.88;2.92;;;;;;;13.77;100.00;100719.09;5036210;28;20017;-58
2022/11/03 08:46:02;;;;;;;10.82;2.83;;;;;;;13.82;100.00;100718.84;5036137;28;20021;-59
2022/11/03 08:48:27;;;;;;;10.60;2.63;;;;;;;13.83;100.00;100695.88;5036443;28;20021;-57
2022/11/03 08:50:53;;;;;;;16.23;3.28;;;;;;;13.91;100.00;100669.88;5035154;28;20033;-59
2022/11/03 08:53:19;;;;;;;10.88;2.83;;;;;;;13.98;100.00;100665.09;5036199;28;20028;-60
2022/11/03 08:55:45;;;;;;;14.63;3.00;;;;;;;14.07;100.00;100680.53;5033344;28;20056;-60
2022/11/03 08:58:10;;;;;;;12.85;2.58;;;;;;;14.04;100.00;100672.75;5033297;28;20069;-59
2022/11/03 09:00:35;;;;;;;13.43;2.60;;;;;;;14.10;100.00;100680.38;5031627;28;20033;-59
2022/11/03 09:03:01;;;;;;;10.98;2.78;;;;;;;14.10;100.00;100660.97;5043167;28;20046;-59
2022/11/03 09:05:26;;;;;;;12.20;3.05;;;;;;;14.13;100.00;100666.13;5036633;28;20036;-59
2022/11/03 09:07:52;;;;;;;10.98;2.95;;;;;;;14.29;100.00;100655.56;5044686;28;20638;-56
2022/11/03 09:10:17;;;;;;;11.50;2.65;;;;;;;14.40;100.00;100661.16;5032088;28;20372;-59
2022/11/03 09:12:43;;;;;;;17.60;2.90;;;;;;;14.36;100.00;100654.28;5031790;28;20033;-59
2022/11/03 09:15:08;;;;;;;11.30;2.30;;;;;;;14.38;100.00;100651.56;5036171;28;20700;-58
2022/11/03 09:17:34;;;;;;;11.35;2.28;;;;;;;14.27;100.00;100657.47;5031821;28;20421;-59
2022/11/03 09:19:59;;;;;;;11.02;3.03;;;;;;;14.31;100.00;100644.88;5040962;28;20020;-56
2022/11/03 09:22:25;;;;;;;12.20;2.92;;;;;;;14.37;100.00;100626.00;5042331;28;20037;-58
2022/11/03 09:24:50;;;;;;;14.95;2.78;;;;;;;14.42;100.00;100625.75;5047915;28;20686;-58
2022/11/03 09:27:15;;;;;;;10.27;2.40;;;;;;;14.51;100.00;100615.50;5048710;28;20027;-59
2022/11/03 09:29:41;;;;;;;10.57;2.55;;;;;;;14.49;100.00;100622.72;5046545;28;20047;-58
2022/11/03 09:32:07;;;;;;;10.93;3.08;;;;;;;14.57;100.00;100603.72;5048431;28;20017;-63
2022/11/03 09:34:32;;;;;;;14.13;2.97;;;;;;;14.64;100.00;100604.25;5049590;28;20051;-59
2022/11/03 09:36:57;;;;;;;13.55;3.28;;;;;;;14.65;100.00;100604.16;5045982;28;20029;-59
2022/11/03 09:39:23;;;;;;;13.80;2.58;;;;;;;14.71;100.00;100589.72;5047158;28;20352;-58
2022/11/03 09:41:48;;;;;;;10.88;2.92;;;;;;;14.81;100.00;100598.03;5048815;28;20017;-59
2022/11/03 09:44:14;;;;;;;15.63;3.13;;;;;;;14.88;100.00;100594.13;5048322;28;20027;-59
2022/11/03 09:46:39;;;;;;;14.68;3.17;;;;;;;15.15;100.00;100593.47;5024507;28;20013;-58
2022/11/03 09:49:05;;;;;;;13.80;2.67;;;;;;;15.19;100.00;100594.16;5048364;28;20028;-57
2022/11/03 09:51:31;;;;;;;16.05;2.85;;;;;;;15.37;100.00;100591.38;5049863;28;20028;-58
2022/11/03 09:53:58;;;;;;;11.27;2.78;;;;;;;15.48;100.00;100593.41;5038338;28;20031;-60
2022/11/03 09:56:23;;;;;;;11.38;2.78;;;;;;;15.60;98.87;100587.38;5017278;28;20025;-58
2022/11/03 09:58:49;;;;;;;16.58;2.42;;;;;;;15.56;98.74;100577.03;5034352;28;20416;-57
2022/11/03 10:01:14;;;;;;;12.07;2.65;;;;;;;15.60;98.13;100573.25;5018601;28;20022;-58
2022/11/03 10:03:40;;;;;;;12.48;2.45;;;;;;;15.55;98.72;100565.53;5037549;28;20037;-58
2022/11/03 10:06:05;;;;;;;9.32;2.60;;;;;;;15.62;98.14;100569.53;5037391;28;20578;-57
2022/11/03 10:08:34;;;;;;;14.57;2.80;;;;;;;15.44;98.14;100573.31;5038521;28;20029;-57
2022/11/03 10:11:01;;;;;;;12.20;2.85;;;;;;;15.26;98.30;100568.13;5029164;28;20389;-59
2022/11/03 10:13:36;;;;;;;9.93;2.20;;;;;;;15.39;97.84;100560.28;5010132;28;20048;-59
2022/11/03 10:16:05;;;;;;;7.32;2.10;;;;;;;15.32;98.00;100556.28;5028730;28;20048;-62
2022/11/03 10:18:31;;;;;;;15.03;2.60;;;;;;;15.34;98.24;100562.34;5011346;28;20029;-60
2022/11/03 10:21:02;;;;;;;13.65;2.83;;;;;;;15.32;98.53;100553.63;5010681;28;20338;-60
2022/11/03 10:23:27;;;;;;;12.02;2.97;;;;;;;15.32;98.59;100546.50;5045841;28;20025;-60
2022/11/03 10:26:07;;;;;;;9.48;2.65;;;;;;;15.06;99.50;100540.06;5029892;28;20135;-61
2022/11/03 10:28:32;;;;;;;7.72;2.50;;;;;;;15.16;100.00;100530.63;5046384;28;20100;-59
2022/11/03 10:31:00;;;;;;;11.35;2.67;;;;;;;15.29;99.19;100536.06;5039355;28;20385;-59
2022/11/03 10:33:28;;;;;;;10.73;2.27;;;;;;;15.31;98.65;100517.41;5027792;28;20064;-59
2022/11/03 10:36:04;;;;;;;15.05;2.92;;;;;;;15.38;98.17;100511.66;5027982;28;20116;-59
2022/11/03 10:38:32;;;;;;;11.57;2.78;;;;;;;15.35;97.40;100506.50;5027838;28;20032;-59
2022/11/03 10:41:10;;;;;;;10.65;2.90;;;;;;;15.59;97.11;100500.69;5027891;28;20052;-60
2022/11/03 10:43:36;;;;;;;8.32;2.47;;;;;;;15.65;97.03;100491.47;5032601;28;20056;-61
2022/11/03 10:46:31;;;;;;;14.07;2.72;;;;;;;15.61;96.47;100488.16;5041057;28;20025;-60
2022/11/03 10:49:05;;;;;;;9.52;2.88;;;;;;;15.70;96.13;100492.06;5001062;28;20510;-60
2022/11/03 10:51:33;;;;;;;12.88;2.67;;;;;;;15.78;95.52;100478.31;5020783;28;20040;-60
2022/11/03 10:54:00;;;;;;;7.25;2.33;;;;;;;15.95;95.03;100469.28;5038962;28;20024;-60
2022/11/03 10:56:26;;;;;;;10.02;2.25;;;;;;;16.00;94.63;100467.22;5038720;28;20150;-61
2022/11/03 10:58:51;;;;;;;14.30;2.67;;;;;;;16.10;94.02;100475.47;5032338;28;20017;-59
2022/11/03 11:01:16;;;;;;;6.18;2.22;;;;;;;16.06;93.56;100468.66;5018365;28;20029;-59
2022/11/03 11:03:43;;;;;;;12.65;2.38;;;;;;;16.14;93.61;100458.38;5035785;28;20044;-58
2022/11/03 11:06:26;;;;;;;8.00;2.22;;;;;;;16.35;92.03;100455.31;5037912;28;20036;-60
2022/11/03 11:08:53;;;;;;;10.18;2.28;;;;;;;16.47;91.60;100452.78;5018588;28;20372;-60
2022/11/03 11:11:20;;;;;;;11.68;2.63;;;;;;;16.49;91.47;100456.19;5020969;28;20036;-58
2022/11/03 11:14:24;;;;;;;11.95;2.50;;;;;;;16.33;91.42;100457.19;5039074;28;20052;-61
2022/11/03 11:16:52;;;;;;;11.65;2.20;;;;;;;16.29;91.34;100450.38;5044724;28;20029;-61
2022/11/03 11:19:18;;;;;;;12.25;2.70;;;;;;;16.44;91.26;100445.03;5041053;28;20017;-59
2022/11/03 11:21:43;;;;;;;10.02;2.15;;;;;;;16.48;91.77;100444.72;5043637;28;20120;-59
2022/11/03 11:24:09;;;;;;;12.02;2.50;;;;;;;16.38;92.11;100438.31;5041886;28;20180;-60
2022/11/03 11:26:34;;;;;;;10.02;2.53;;;;;;;16.50;90.38;100437.47;5023531;28;20048;-58
2022/11/03 11:29:09;;;;;;;11.05;2.63;;;;;;;16.50;90.20;100424.19;5041517;28;20367;-60
2022/11/03 11:31:38;;;;;;;8.85;2.30;;;;;;;16.29;90.60;100424.63;5040565;28;20029;-59
2022/11/03 11:34:19;;;;;;;;;;;;;;;16.34;91.69;100421.69;5039295;28;20040;-60
2022/11/03 11:36:49;;;;;;;10.27;2.25;;;;;;;16.65;89.73;100408.19;5019338;28;20004;-61
2022/11/03 11:39:27;;;;;;;9.82;1.95;;;;;;;16.65;89.71;100409.03;5016770;28;20027;-61